Terminal Aerodrome Forecast
Issued by NWS

Home | Current Version | Previous Version | Text Only | Print | Product List | Glossary On
Versions: 1 2 3 4 5 6 7 8 9 10 11 12 13 14 15 16 17 18
000
FTUS45 KRIW 291725
TAFCOD
TAF
KCOD 291725Z 2918/3018 05007KT P6SM FEW120 SCT250
     FM300200 20006KT P6SM FEW120 SCT250
     FM301700 13009KT P6SM FEW110 SCT250
      AMD LTD TO CLD VIS AND WIND=

USA.gov is the U.S. government's official web portal to all federal, state and local government web resources and services.